createdAt,value
2023-05-18T00:02:08.796Z,13.92
2023-05-18T00:04:36.719Z,14.55
2023-05-18T00:07:05.091Z,14.45
2023-05-18T00:09:34.840Z,14.42
2023-05-18T00:12:04.184Z,14.73
2023-05-18T00:14:31.798Z,14.37
2023-05-18T00:17:01.998Z,14.23
2023-05-18T00:19:30.451Z,14.47
2023-05-18T00:21:58.063Z,14.80
2023-05-18T00:24:25.166Z,14.88
2023-05-18T00:26:52.337Z,14.39
2023-05-18T00:29:19.392Z,13.53
2023-05-18T00:31:47.262Z,13.92
2023-05-18T00:34:15.767Z,14.39
2023-05-18T00:36:43.325Z,13.94
2023-05-18T00:39:10.456Z,14.27
2023-05-18T00:41:37.711Z,14.29
2023-05-18T00:44:05.234Z,14.65
2023-05-18T00:46:32.752Z,14.53
2023-05-18T00:49:02.267Z,14.52
2023-05-18T00:52:02.774Z,14.19
2023-05-18T00:55:04.815Z,14.51
2023-05-18T00:57:48.276Z,14.60
2023-05-18T01:00:15.643Z,14.20
2023-05-18T01:02:45.489Z,13.82
2023-05-18T01:05:13.461Z,15.02
2023-05-18T01:07:44.794Z,14.82
2023-05-18T01:10:15.555Z,14.49
2023-05-18T01:12:53.506Z,14.38
2023-05-18T01:15:27.385Z,14.70
2023-05-18T01:18:05.183Z,14.43
2023-05-18T01:20:49.603Z,14.33
2023-05-18T01:24:02.797Z,14.30
2023-05-18T01:26:47.001Z,13.95
2023-05-18T01:29:15.842Z,14.28
2023-05-18T01:31:43.121Z,13.53
2023-05-18T01:34:29.851Z,13.86
2023-05-18T01:37:10.544Z,13.60
2023-05-18T01:39:38.006Z,13.60
2023-05-18T01:42:10.416Z,13.72
2023-05-18T01:44:46.062Z,13.54
2023-05-18T01:47:15.671Z,13.75
2023-05-18T01:50:10.933Z,14.12
2023-05-18T01:53:17.508Z,13.93
2023-05-18T01:55:45.910Z,13.45
2023-05-18T01:58:14.929Z,13.40
2023-05-18T02:00:42.370Z,13.85
2023-05-18T02:03:09.464Z,14.00
2023-05-18T02:05:56.845Z,13.50
2023-05-18T02:08:57.983Z,13.14
2023-05-18T02:11:38.321Z,13.18
2023-05-18T02:14:05.509Z,13.46
2023-05-18T02:16:32.855Z,13.39
2023-05-18T02:19:00.446Z,13.63
2023-05-18T02:21:27.440Z,13.18
2023-05-18T02:23:54.618Z,13.61
2023-05-18T02:26:21.652Z,13.64
2023-05-18T02:28:52.654Z,13.49
2023-05-18T02:31:19.983Z,13.51
2023-05-18T02:33:47.057Z,13.25
2023-05-18T02:36:14.613Z,13.38
2023-05-18T02:38:43.819Z,13.25
2023-05-18T02:41:12.255Z,12.50
2023-05-18T02:43:39.676Z,13.24
2023-05-18T02:46:08.208Z,13.42
2023-05-18T02:48:35.494Z,13.11
2023-05-18T02:51:22.823Z,12.97
2023-05-18T02:54:03.554Z,13.25
2023-05-18T02:56:33.633Z,12.93
2023-05-18T02:59:08.997Z,12.92
2023-05-18T03:01:40.259Z,12.98
2023-05-18T03:04:07.939Z,12.65
2023-05-18T03:06:38.495Z,12.79
2023-05-18T03:09:05.487Z,12.94
2023-05-18T03:11:40.567Z,13.31
2023-05-18T03:14:08.654Z,13.07
2023-05-18T03:16:38.855Z,12.89
2023-05-18T03:19:10.844Z,12.86
2023-05-18T03:21:40.620Z,12.72
2023-05-18T03:24:07.696Z,13.06
2023-05-18T03:26:39.891Z,12.64
2023-05-18T03:29:06.903Z,12.76
2023-05-18T03:31:33.937Z,12.69
2023-05-18T03:34:02.768Z,12.76
2023-05-18T03:36:29.750Z,12.97
2023-05-18T03:38:56.870Z,12.77
2023-05-18T03:41:24.607Z,12.84
2023-05-18T03:43:53.909Z,12.87
2023-05-18T03:46:22.332Z,13.07
2023-05-18T03:48:49.599Z,13.02
2023-05-18T03:51:40.876Z,12.89
2023-05-18T03:54:42.867Z,13.12
2023-05-18T03:57:24.152Z,13.23
2023-05-18T03:59:51.192Z,13.01
2023-05-18T04:02:18.406Z,12.81
2023-05-18T04:04:48.176Z,12.97
2023-05-18T04:07:22.150Z,13.23
2023-05-18T04:09:49.393Z,13.11
2023-05-18T04:12:16.542Z,13.08
2023-05-18T04:14:43.477Z,12.68
2023-05-18T04:17:10.429Z,13.01
2023-05-18T04:19:38.241Z,13.29
2023-05-18T04:22:08.147Z,13.44
2023-05-18T04:24:35.416Z,13.20
2023-05-18T04:27:03.549Z,13.32
2023-05-18T04:29:31.623Z,13.10
2023-05-18T04:32:01.163Z,13.24
2023-05-18T04:34:29.584Z,13.34
2023-05-18T04:36:59.305Z,12.89
2023-05-18T04:39:27.419Z,12.80
2023-05-18T04:42:01.174Z,13.62
2023-05-18T04:44:29.726Z,13.02
2023-05-18T04:46:59.621Z,13.23
2023-05-18T04:49:34.936Z,13.64
2023-05-18T04:52:16.926Z,13.70
2023-05-18T04:54:57.935Z,13.91
2023-05-18T04:57:32.745Z,13.59
2023-05-18T05:00:00.939Z,13.96
2023-05-18T05:02:28.100Z,14.34
2023-05-18T05:04:57.009Z,14.71
2023-05-18T05:07:24.166Z,14.49
2023-05-18T05:09:51.492Z,14.57
2023-05-18T05:12:24.924Z,15.82
2023-05-18T05:15:04.932Z,15.76
2023-05-18T05:17:53.970Z,15.03
2023-05-18T05:20:27.718Z,14.43
2023-05-18T05:22:54.904Z,15.20
2023-05-18T05:25:25.043Z,15.19
2023-05-18T05:27:52.322Z,14.46
2023-05-18T05:30:21.076Z,15.34
2023-05-18T05:32:54.944Z,16.24
2023-05-18T05:35:35.384Z,17.43
2023-05-18T05:38:10.831Z,20.43
2023-05-18T05:40:37.903Z,20.54
2023-05-18T05:43:06.319Z,19.83
2023-05-18T05:45:36.841Z,18.58
2023-05-18T05:48:14.139Z,17.30
2023-05-18T05:50:53.992Z,17.34
2023-05-18T05:53:35.952Z,17.24
2023-05-18T05:56:10.323Z,16.34
2023-05-18T05:58:42.453Z,17.30
2023-05-18T06:01:09.566Z,17.17
2023-05-18T06:03:37.522Z,17.35
2023-05-18T06:06:06.695Z,17.66
2023-05-18T06:08:33.694Z,18.07
2023-05-18T06:11:00.839Z,18.98
2023-05-18T06:13:27.885Z,19.75
2023-05-18T06:15:56.918Z,20.17
2023-05-18T06:18:24.964Z,21.08
2023-05-18T06:21:02.320Z,21.52
2023-05-18T06:23:30.179Z,21.23
2023-05-18T06:26:03.303Z,22.12
2023-05-18T06:28:33.579Z,22.37
2023-05-18T06:31:21.130Z,21.35
2023-05-18T06:33:56.248Z,22.05
2023-05-18T06:36:23.507Z,20.97
2023-05-18T06:38:50.864Z,19.38
2023-05-18T06:41:18.166Z,21.06
2023-05-18T06:43:45.321Z,21.74
2023-05-18T06:46:30.075Z,19.94
2023-05-18T06:49:11.434Z,19.53
2023-05-18T06:51:45.049Z,21.12
2023-05-18T06:54:18.695Z,21.42
2023-05-18T06:56:46.554Z,20.45
2023-05-18T06:59:13.598Z,20.58
2023-05-18T07:01:41.586Z,21.03
2023-05-18T07:04:09.297Z,19.32
2023-05-18T07:06:36.707Z,17.99
2023-05-18T07:09:04.494Z,17.35
2023-05-18T07:11:38.048Z,17.15
2023-05-18T07:14:18.030Z,17.82
2023-05-18T07:16:58.076Z,18.73
2023-05-18T07:19:31.772Z,18.75
2023-05-18T07:21:59.613Z,18.31
2023-05-18T07:24:26.810Z,17.96
2023-05-18T07:26:54.986Z,17.97
2023-05-18T07:29:23.315Z,17.93
2023-05-18T07:31:57.073Z,17.71
2023-05-18T07:34:31.342Z,19.17
2023-05-18T07:36:58.405Z,18.38
2023-05-18T07:39:28.986Z,19.03
2023-05-18T07:41:56.368Z,18.29
2023-05-18T07:44:24.406Z,18.82
2023-05-18T07:46:52.464Z,18.28
2023-05-18T07:49:26.032Z,18.70
2023-05-18T07:52:07.087Z,18.49
2023-05-18T07:54:47.062Z,17.77
2023-05-18T07:57:21.284Z,18.47
2023-05-18T07:59:48.247Z,18.26
2023-05-18T08:02:16.790Z,18.43
2023-05-18T08:04:43.733Z,19.44
2023-05-18T08:07:10.867Z,19.15
2023-05-18T08:09:38.157Z,20.17
2023-05-18T08:12:06.222Z,19.38
2023-05-18T08:14:33.387Z,19.28
2023-05-18T08:17:00.448Z,19.97
2023-05-18T08:19:41.934Z,20.28
2023-05-18T08:22:23.245Z,20.21
2023-05-18T08:24:58.195Z,19.85
2023-05-18T08:27:25.143Z,19.15
2023-05-18T08:29:52.108Z,18.76
2023-05-18T08:32:19.175Z,18.74
2023-05-18T08:34:46.877Z,20.34
2023-05-18T08:37:13.836Z,20.31
2023-05-18T08:39:41.286Z,20.73
2023-05-18T08:42:16.679Z,22.02
2023-05-18T08:44:52.361Z,22.37
2023-05-18T08:47:26.142Z,21.17
2023-05-18T08:50:02.123Z,20.85
2023-05-18T08:52:37.308Z,20.43
2023-05-18T08:55:10.122Z,20.38
2023-05-18T08:57:42.512Z,20.36
2023-05-18T09:00:12.265Z,20.71
2023-05-18T09:02:40.815Z,21.32
2023-05-18T09:05:09.543Z,19.71
2023-05-18T09:07:39.072Z,20.82
2023-05-18T09:10:10.564Z,20.17
2023-05-18T09:12:39.899Z,22.18
2023-05-18T09:15:18.003Z,22.30
2023-05-18T09:17:45.177Z,21.00
2023-05-18T09:20:12.594Z,20.67
2023-05-18T09:22:43.060Z,21.71
2023-05-18T09:25:10.966Z,22.13
2023-05-18T09:27:38.729Z,21.03
2023-05-18T09:30:11.380Z,21.28
2023-05-18T09:32:39.356Z,21.88
2023-05-18T09:35:10.326Z,22.71
2023-05-18T09:37:41.775Z,23.26
2023-05-18T09:40:09.366Z,22.59
2023-05-18T09:42:41.453Z,22.54
2023-05-18T09:45:20.181Z,20.70
2023-05-18T09:47:50.051Z,21.80
2023-05-18T09:50:25.134Z,20.64
2023-05-18T09:53:07.158Z,21.13
2023-05-18T09:55:50.494Z,20.08
2023-05-18T09:58:18.050Z,20.16
2023-05-18T10:00:57.004Z,18.99
2023-05-18T10:03:25.489Z,20.20
2023-05-18T10:05:52.508Z,19.79
2023-05-18T10:08:29.068Z,19.82
2023-05-18T10:10:56.632Z,20.13
2023-05-18T10:13:27.082Z,20.73
2023-05-18T10:15:57.347Z,20.72
2023-05-18T10:18:32.870Z,21.06
2023-05-18T10:21:02.230Z,21.14
2023-05-18T10:23:33.985Z,22.08
2023-05-18T10:26:01.106Z,21.02
2023-05-18T10:28:38.132Z,21.42
2023-05-18T10:31:08.260Z,22.21
2023-05-18T10:33:37.460Z,22.29
2023-05-18T10:36:05.951Z,22.62
2023-05-18T10:38:36.960Z,22.20
2023-05-18T10:41:07.164Z,21.75
2023-05-18T10:43:36.761Z,22.05
2023-05-18T10:46:08.484Z,22.57
2023-05-18T10:48:42.838Z,22.46
2023-05-18T10:51:17.702Z,21.99
2023-05-18T10:54:00.182Z,21.66
2023-05-18T10:56:36.042Z,21.99
2023-05-18T10:59:05.283Z,21.47
2023-05-18T11:01:33.078Z,21.31
2023-05-18T11:04:05.080Z,21.97
2023-05-18T11:06:35.189Z,22.44
2023-05-18T11:09:03.850Z,23.06
2023-05-18T11:11:51.344Z,22.76
2023-05-18T11:14:36.116Z,23.49
2023-05-18T11:17:23.148Z,23.40
2023-05-18T11:20:02.322Z,23.83
2023-05-18T11:22:50.025Z,23.35
2023-05-18T11:25:26.073Z,22.49
2023-05-18T11:27:54.481Z,20.52
2023-05-18T11:30:34.891Z,22.17
2023-05-18T11:33:21.531Z,21.47
2023-05-18T11:36:07.189Z,22.08
2023-05-18T11:39:04.649Z,23.08
2023-05-18T11:41:36.362Z,22.56
2023-05-18T11:44:12.604Z,21.31
2023-05-18T11:47:04.006Z,21.69
2023-05-18T11:49:38.706Z,21.16
2023-05-18T11:52:26.269Z,21.74
2023-05-18T11:55:07.186Z,22.76
2023-05-18T11:57:43.424Z,22.58
2023-05-18T12:00:12.387Z,23.27
2023-05-18T12:02:43.684Z,22.46
2023-05-18T12:05:11.379Z,23.16
2023-05-18T12:07:39.396Z,23.83
2023-05-18T12:10:17.218Z,22.26
2023-05-18T12:12:49.414Z,21.62
2023-05-18T12:15:17.428Z,21.39
2023-05-18T12:17:49.110Z,21.85
2023-05-18T12:20:25.396Z,21.09
2023-05-18T12:22:53.984Z,22.13
2023-05-18T12:25:23.548Z,23.10
2023-05-18T12:27:52.684Z,21.86
2023-05-18T12:30:24.852Z,22.44
2023-05-18T12:32:54.622Z,22.27
2023-05-18T12:35:29.529Z,22.94
2023-05-18T12:38:00.387Z,22.74
2023-05-18T12:40:34.299Z,21.82
2023-05-18T12:43:03.127Z,22.41
2023-05-18T12:45:32.431Z,21.95
2023-05-18T12:48:13.396Z,22.49
2023-05-18T12:50:57.229Z,22.96
2023-05-18T12:53:50.272Z,22.31
2023-05-18T12:56:25.437Z,21.78
2023-05-18T12:59:00.173Z,21.92
2023-05-18T13:01:28.265Z,22.48
2023-05-18T13:03:57.926Z,22.07
2023-05-18T13:06:25.820Z,21.17
2023-05-18T13:08:56.267Z,22.01
2023-05-18T13:11:27.747Z,21.53
2023-05-18T13:14:01.836Z,21.39
2023-05-18T13:16:30.680Z,21.32
2023-05-18T13:18:59.427Z,21.70
2023-05-18T13:21:41.233Z,21.34
2023-05-18T13:24:15.117Z,21.36
2023-05-18T13:26:42.228Z,21.79
2023-05-18T13:29:11.789Z,21.46
2023-05-18T13:31:38.954Z,21.00
2023-05-18T13:34:12.275Z,20.22
2023-05-18T13:36:39.204Z,20.90
2023-05-18T13:39:07.468Z,21.61
2023-05-18T13:41:36.824Z,21.84
2023-05-18T13:44:04.110Z,21.95
2023-05-18T13:46:38.359Z,21.15
2023-05-18T13:49:19.258Z,20.63
2023-05-18T13:52:00.302Z,20.52
2023-05-18T13:54:40.361Z,20.80
2023-05-18T13:57:13.821Z,21.18
2023-05-18T13:59:41.704Z,20.76
2023-05-18T14:02:08.975Z,21.24
2023-05-18T14:04:43.344Z,21.14
2023-05-18T14:07:16.946Z,20.63
2023-05-18T14:09:45.015Z,20.69
2023-05-18T14:12:13.105Z,20.86
2023-05-18T14:14:41.292Z,21.33
2023-05-18T14:17:11.285Z,21.32
2023-05-18T14:19:51.326Z,21.47
2023-05-18T14:22:38.381Z,21.85
2023-05-18T14:25:25.305Z,21.63
2023-05-18T14:28:05.910Z,21.58
2023-05-18T14:30:46.349Z,22.37
2023-05-18T14:33:19.873Z,22.00
2023-05-18T14:35:48.037Z,21.86
2023-05-18T14:38:16.112Z,22.63
2023-05-18T14:40:43.055Z,22.13
2023-05-18T14:43:10.070Z,21.32
2023-05-18T14:45:38.091Z,20.49
2023-05-18T14:48:05.215Z,20.34
2023-05-18T14:50:33.834Z,20.93
2023-05-18T14:53:15.299Z,20.15
2023-05-18T14:55:56.350Z,20.83
2023-05-18T14:58:36.364Z,20.75
2023-05-18T15:01:10.128Z,20.49
2023-05-18T15:03:44.481Z,20.67
2023-05-18T15:06:17.933Z,20.90
2023-05-18T15:08:45.604Z,21.24
2023-05-18T15:11:12.601Z,21.08
2023-05-18T15:13:40.718Z,20.82
2023-05-18T15:16:09.031Z,21.10
2023-05-18T15:18:36.300Z,20.44
2023-05-18T15:21:03.330Z,20.60
2023-05-18T15:23:37.358Z,20.12
2023-05-18T15:26:17.320Z,20.12
2023-05-18T15:28:52.603Z,20.65
2023-05-18T15:31:26.541Z,20.62
2023-05-18T15:34:06.363Z,20.05
2023-05-18T15:36:39.924Z,20.54
2023-05-18T15:39:06.809Z,20.54
2023-05-18T15:41:34.403Z,20.21
2023-05-18T15:44:02.054Z,21.19
2023-05-18T15:46:31.997Z,21.45
2023-05-18T15:49:12.542Z,21.01
2023-05-18T15:51:59.335Z,20.82
2023-05-18T15:54:46.385Z,20.63
2023-05-18T15:57:20.215Z,21.09
2023-05-18T15:59:48.996Z,20.55
2023-05-18T16:02:18.161Z,20.34
2023-05-18T16:04:45.050Z,20.33
2023-05-18T16:07:12.128Z,19.92
2023-05-18T16:09:39.049Z,19.80
2023-05-18T16:12:06.488Z,20.49
2023-05-18T16:14:39.857Z,20.60
2023-05-18T16:17:06.948Z,20.65
2023-05-18T16:19:47.381Z,20.58
2023-05-18T16:22:27.421Z,20.32
2023-05-18T16:25:07.378Z,20.40
2023-05-18T16:27:41.005Z,20.70
2023-05-18T16:30:08.441Z,20.28
2023-05-18T16:32:36.520Z,20.27
2023-05-18T16:35:04.864Z,19.80
2023-05-18T16:37:31.930Z,19.78
2023-05-18T16:40:06.533Z,19.86
2023-05-18T16:42:47.673Z,20.04
2023-05-18T16:45:20.801Z,20.16
2023-05-18T16:48:10.524Z,20.02
2023-05-18T16:51:05.380Z,20.06
2023-05-18T16:53:39.620Z,20.26
2023-05-18T16:56:13.373Z,19.74
2023-05-18T16:58:52.235Z,19.81
2023-05-18T17:03:53.548Z,19.90
2023-05-18T17:06:21.536Z,19.98
2023-05-18T17:08:50.678Z,19.77
2023-05-18T17:11:32.418Z,19.64
2023-05-18T17:14:13.419Z,19.69
2023-05-18T17:16:55.320Z,19.84
2023-05-18T17:19:32.883Z,19.89
2023-05-18T17:21:59.940Z,19.50
2023-05-18T17:24:27.035Z,19.41
2023-05-18T17:26:54.092Z,20.03
2023-05-18T17:29:21.929Z,19.42
2023-05-18T17:31:49.223Z,19.37
2023-05-18T17:34:16.217Z,19.93
2023-05-18T17:36:43.464Z,19.61
2023-05-18T17:39:23.425Z,19.77
2023-05-18T17:42:04.515Z,19.65
2023-05-18T17:44:38.350Z,19.13
2023-05-18T17:47:05.789Z,19.06
2023-05-18T17:49:34.230Z,18.77
2023-05-18T17:52:16.865Z,19.41
2023-05-18T17:54:44.097Z,19.54
2023-05-18T17:57:11.103Z,19.48
2023-05-18T17:59:38.097Z,19.27
2023-05-18T18:02:05.858Z,19.08
2023-05-18T18:04:32.914Z,19.40
2023-05-18T18:07:20.436Z,19.14
2023-05-18T18:10:01.314Z,19.24
2023-05-18T18:12:28.389Z,18.84
2023-05-18T18:15:15.468Z,18.78
2023-05-18T18:18:16.520Z,19.13
2023-05-18T18:21:17.844Z,18.79
2023-05-18T18:23:45.198Z,18.96
2023-05-18T18:26:12.355Z,18.62
2023-05-18T18:28:39.535Z,18.53
2023-05-18T18:31:06.717Z,18.45
2023-05-18T18:33:33.830Z,18.70
2023-05-18T18:36:01.006Z,18.83
2023-05-18T18:38:29.025Z,18.23
2023-05-18T18:41:01.829Z,18.95
2023-05-18T18:43:29.077Z,18.80
2023-05-18T18:45:57.345Z,18.92
2023-05-18T18:48:25.642Z,18.54
2023-05-18T18:51:05.822Z,18.72
2023-05-18T18:54:06.593Z,18.85
2023-05-18T18:57:08.619Z,17.96
2023-05-18T19:00:09.467Z,18.47
2023-05-18T19:02:50.314Z,18.19
2023-05-18T19:05:21.704Z,18.37
2023-05-18T19:07:55.337Z,18.58
2023-05-18T19:10:23.511Z,18.20
2023-05-18T19:12:50.804Z,18.29
2023-05-18T19:15:38.915Z,18.38
2023-05-18T19:18:40.581Z,18.15
2023-05-18T19:21:21.560Z,18.13
2023-05-18T19:24:10.213Z,18.29
2023-05-18T19:26:53.817Z,17.62
2023-05-18T19:29:21.710Z,17.53
2023-05-18T19:31:49.181Z,17.76
2023-05-18T19:34:16.248Z,17.38
2023-05-18T19:36:43.359Z,17.68
2023-05-18T19:39:11.740Z,17.94
2023-05-18T19:41:58.621Z,18.22
2023-05-18T19:44:39.341Z,17.68
2023-05-18T19:47:06.573Z,17.78
2023-05-18T19:49:53.845Z,17.68
2023-05-18T19:52:54.539Z,18.01
2023-05-18T19:55:49.022Z,18.05
2023-05-18T19:58:42.606Z,17.49
2023-05-18T20:01:43.581Z,17.60
2023-05-18T20:04:25.067Z,17.59
2023-05-18T20:06:52.272Z,17.22
2023-05-18T20:09:21.083Z,17.57
2023-05-18T20:11:49.630Z,17.61
2023-05-18T20:14:38.312Z,17.72
2023-05-18T20:17:19.910Z,17.31
2023-05-18T20:19:50.680Z,17.80
2023-05-18T20:22:37.522Z,17.24
2023-05-18T20:25:19.433Z,17.72
2023-05-18T20:27:46.566Z,17.61
2023-05-18T20:30:13.847Z,17.17
2023-05-18T20:32:41.382Z,17.79
2023-05-18T20:35:09.965Z,17.44
2023-05-18T20:37:37.782Z,17.68
2023-05-18T20:40:24.652Z,17.36
2023-05-18T20:43:06.653Z,17.64
2023-05-18T20:45:34.204Z,17.63
2023-05-18T20:48:01.397Z,17.42
2023-05-18T20:50:51.611Z,17.90
2023-05-18T20:53:52.663Z,17.54
2023-05-18T20:56:34.154Z,17.29
2023-05-18T20:59:01.813Z,17.75
2023-05-18T21:01:29.483Z,16.96
2023-05-18T21:03:59.511Z,17.51
2023-05-18T21:06:26.959Z,17.20
2023-05-18T21:08:54.012Z,17.32
2023-05-18T21:11:21.660Z,17.38
2023-05-18T21:13:49.021Z,17.48
2023-05-18T21:16:16.188Z,17.43
2023-05-18T21:18:43.289Z,17.53
2023-05-18T21:21:10.357Z,17.66
2023-05-18T21:23:57.638Z,17.42
2023-05-18T21:26:38.200Z,17.15
2023-05-18T21:29:06.287Z,17.46
2023-05-18T21:31:33.384Z,17.65
2023-05-18T21:34:00.471Z,17.62
2023-05-18T21:36:34.915Z,17.64
2023-05-18T21:39:06.138Z,17.48
2023-05-18T21:41:53.538Z,17.11
2023-05-18T21:44:34.307Z,17.46
2023-05-18T21:47:01.293Z,16.52
2023-05-18T21:49:48.669Z,17.56
2023-05-18T21:52:29.218Z,17.22
2023-05-18T21:54:56.493Z,16.88
2023-05-18T21:57:43.617Z,17.08
2023-05-18T22:00:44.610Z,16.97
2023-05-18T22:03:26.048Z,17.06
2023-05-18T22:05:53.229Z,16.89
2023-05-18T22:08:20.463Z,17.39
2023-05-18T22:10:47.440Z,17.04
2023-05-18T22:13:14.428Z,17.21
2023-05-18T22:16:01.971Z,17.18
2023-05-18T22:18:42.171Z,16.81
2023-05-18T22:21:09.710Z,16.98
2023-05-18T22:23:56.638Z,17.02
2023-05-18T22:26:41.022Z,17.33
2023-05-18T22:29:10.682Z,16.60
2023-05-18T22:31:38.091Z,17.24
2023-05-18T22:34:05.182Z,17.39
2023-05-18T22:36:32.719Z,17.23
2023-05-18T22:38:59.853Z,16.18
2023-05-18T22:41:27.186Z,16.73
2023-05-18T22:43:54.455Z,17.11
2023-05-18T22:46:22.102Z,17.02
2023-05-18T22:48:49.140Z,16.97
2023-05-18T22:51:36.610Z,16.68
2023-05-18T22:54:37.588Z,17.12
2023-05-18T22:57:18.608Z,16.69
2023-05-18T22:59:48.531Z,17.06
2023-05-18T23:02:16.124Z,17.15
2023-05-18T23:04:43.381Z,16.82
2023-05-18T23:07:11.839Z,16.85
2023-05-18T23:09:38.927Z,17.02
2023-05-18T23:12:07.190Z,17.12
2023-05-18T23:14:34.404Z,17.24
2023-05-18T23:17:02.726Z,17.07
2023-05-18T23:19:30.131Z,16.78
2023-05-18T23:21:57.231Z,16.89
2023-05-18T23:24:51.769Z,16.77
2023-05-18T23:27:52.615Z,16.71
2023-05-18T23:30:33.545Z,16.73
2023-05-18T23:33:01.541Z,16.42
2023-05-18T23:35:29.149Z,16.62
2023-05-18T23:37:57.787Z,16.66
2023-05-18T23:40:25.523Z,16.43
2023-05-18T23:43:13.770Z,17.06
2023-05-18T23:45:54.569Z,16.87
2023-05-18T23:48:22.236Z,16.71
2023-05-18T23:51:17.850Z,16.53
2023-05-18T23:53:59.176Z,16.64
2023-05-18T23:56:26.461Z,16.52
2023-05-18T23:58:53.779Z,16.06
